Time;durP1;ratioP1;P1;durP2;ratioP2;P2;SDS_P1;SDS_P2;PMS_P1;PMS_P2;Temp;Humidity;BMP_temperature;BMP_pressure;BME280_temperature;BME280_humidity;BME280_pressure;Samples;Min_cycle;Max_cycle;Signal;HPM_P1;HPM_P2
2023/02/19 00:01:32;;;;;;;31.35;15.10;;;;;;;14.23;64.47;101692.03;5006924;27;109663;-89
2023/02/19 00:04:03;;;;;;;26.60;14.20;;;;;;;14.21;64.32;101694.75;5010586;27;123303;-90
2023/02/19 00:06:32;;;;;;;23.30;14.27;;;;;;;14.20;64.55;101688.56;5004926;27;123319;-90
2023/02/19 00:09:00;;;;;;;28.52;14.05;;;;;;;14.20;64.49;101693.03;5024492;27;108707;-91
2023/02/19 00:11:30;;;;;;;23.80;12.30;;;;;;;14.18;64.29;101694.91;5033393;27;112838;-90
2023/02/19 00:13:59;;;;;;;26.35;12.15;;;;;;;14.16;64.24;101692.28;5002658;27;123987;-90
2023/02/19 00:16:31;;;;;;;22.60;10.85;;;;;;;14.14;64.13;101693.31;5009840;27;123757;-87
2023/02/19 00:19:00;;;;;;;29.25;11.15;;;;;;;14.12;64.24;101690.72;5022890;27;108722;-89
2023/02/19 00:21:28;;;;;;;21.20;10.35;;;;;;;14.10;64.20;101687.25;5003065;27;111615;-90
2023/02/19 00:24:00;;;;;;;20.30;10.18;;;;;;;14.09;64.28;101695.31;5019512;27;123289;-89
2023/02/19 00:26:28;;;;;;;22.60;9.90;;;;;;;14.07;64.23;101692.75;5005881;27;123014;-90
2023/02/19 00:28:57;;;;;;;21.30;10.18;;;;;;;14.06;64.13;101685.69;5005983;27;110131;-90
2023/02/19 00:31:27;;;;;;;17.77;9.88;;;;;;;14.05;64.12;101691.06;5022839;27;109194;-91
2023/02/19 00:33:59;;;;;;;22.65;9.93;;;;;;;14.04;64.06;101695.53;5017036;27;123467;-91
2023/02/19 00:36:27;;;;;;;19.55;9.15;;;;;;;14.03;64.10;101701.78;5021553;27;125715;-90
2023/02/19 00:38:55;;;;;;;21.67;9.63;;;;;;;14.01;64.17;101698.34;5022883;27;111125;-90
2023/02/19 00:41:23;;;;;;;18.95;9.10;;;;;;;13.99;64.09;101700.22;5019463;27;111327;-90
2023/02/19 00:44:05;;;;;;;23.15;9.38;;;;;;;13.96;64.26;101689.72;5005515;27;123838;-88
2023/02/19 00:46:36;;;;;;;20.33;9.45;;;;;;;13.96;63.99;101698.56;5020938;27;123111;-90
2023/02/19 00:49:05;;;;;;;23.90;9.73;;;;;;;13.95;64.14;101693.28;5019021;27;108809;-91
2023/02/19 00:51:36;;;;;;;24.40;10.13;;;;;;;13.93;64.14;101689.84;5003050;27;108397;-90
2023/02/19 00:54:05;;;;;;;23.42;9.98;;;;;;;13.92;64.03;101696.09;5007316;27;123624;-91
2023/02/19 00:56:33;;;;;;;23.20;9.10;;;;;;;13.90;63.76;101700.63;5021500;27;123695;-91
2023/02/19 00:59:00;;;;;;;20.60;9.80;;;;;;;13.90;64.22;101700.63;5008718;27;108907;-92
2023/02/19 01:01:27;;;;;;;21.15;9.40;;;;;;;13.90;64.02;101712.16;5003919;27;110643;-90
2023/02/19 01:03:54;;;;;;;22.55;8.73;;;;;;;13.88;63.85;101710.47;5025527;27;123629;-91
2023/02/19 01:06:22;;;;;;;18.80;9.05;;;;;;;13.88;63.80;101707.81;5006783;27;123404;-91
2023/02/19 01:08:49;;;;;;;20.35;8.70;;;;;;;13.87;64.03;101706.97;5011203;27;110756;-91
2023/02/19 01:11:17;;;;;;;25.13;9.10;;;;;;;13.86;63.99;101701.69;5005244;27;108483;-89
2023/02/19 01:13:44;;;;;;;18.20;8.25;;;;;;;13.86;63.74;101699.88;5012279;27;123549;-91
2023/02/19 01:16:18;;;;;;;20.38;7.75;;;;;;;13.86;63.77;101709.69;5007130;27;123376;-90
2023/02/19 01:18:46;;;;;;;14.65;7.53;;;;;;;13.85;64.03;101713.31;5006677;27;108979;-91
2023/02/19 01:21:17;;;;;;;19.17;7.65;;;;;;;13.83;63.94;101716.88;5035323;27;108220;-90
2023/02/19 01:23:46;;;;;;;23.92;7.63;;;;;;;13.81;63.67;101708.09;5022986;27;125410;-88
2023/02/19 01:26:16;;;;;;;19.63;8.00;;;;;;;13.80;63.95;101711.69;5026630;27;123331;-90
2023/02/19 01:28:44;;;;;;;18.42;8.23;;;;;;;13.82;63.83;101717.84;5026249;27;111409;-92
2023/02/19 01:31:13;;;;;;;16.05;7.53;;;;;;;13.80;64.04;101717.00;5029947;27;110140;-91
2023/02/19 01:33:47;;;;;;;22.33;7.95;;;;;;;13.79;63.74;101731.28;5022081;27;124019;-90
2023/02/19 01:36:15;;;;;;;19.23;7.32;;;;;;;13.79;63.81;101725.09;5027897;27;123659;-90
2023/02/19 01:38:43;;;;;;;20.85;7.82;;;;;;;13.78;63.74;101724.19;5009084;27;108467;-91
2023/02/19 01:41:14;;;;;;;23.02;7.60;;;;;;;13.76;63.65;101720.75;5028172;27;108566;-91
2023/02/19 01:44:08;;;;;;;19.02;7.70;;;;;;;13.75;63.86;101724.34;5023916;27;125384;-91
2023/02/19 01:46:38;;;;;;;17.98;7.18;;;;;;;13.76;63.64;101720.75;5024033;27;125189;-91
2023/02/19 01:49:22;;;;;;;26.85;7.15;;;;;;;13.74;63.72;101727.94;5024889;27;110085;-90
2023/02/19 01:52:03;;;;;;;19.05;6.72;;;;;;;13.73;63.47;101720.91;5024984;27;109358;-88
2023/02/19 01:54:34;;;;;;;19.83;6.80;;;;;;;13.72;63.54;101724.47;5025827;27;123754;-90
2023/02/19 01:57:06;;;;;;;16.38;6.32;;;;;;;13.72;63.48;101732.47;5039919;27;122994;-90
2023/02/19 01:59:34;;;;;;;16.80;6.65;;;;;;;13.72;63.48;101735.13;5021681;27;108722;-91
2023/02/19 02:02:01;;;;;;;17.40;6.32;;;;;;;13.72;63.28;101740.47;5029459;27;108566;-90
2023/02/19 02:04:31;;;;;;;22.27;6.75;;;;;;;13.72;63.45;101735.13;5022782;27;123734;-91
2023/02/19 02:07:02;;;;;;;21.52;6.03;;;;;;;13.72;63.39;101729.81;5022438;27;123244;-91
2023/02/19 02:12:16;;;;;;;20.70;6.18;;;;;;;13.69;63.31;101727.28;5032415;27;110029;-91
2023/02/19 02:14:46;;;;;;;19.05;6.25;;;;;;;13.70;63.19;101725.50;5031255;27;123879;-90
2023/02/19 02:17:28;;;;;;;21.92;6.30;;;;;;;13.70;63.20;101731.69;5008308;27;123659;-91
2023/02/19 02:20:13;;;;;;;20.33;6.78;;;;;;;13.71;63.14;101727.22;5014676;27;109981;-92
2023/02/19 02:23:00;;;;;;;;;;;;;;;13.69;63.32;101729.06;5029695;27;109658;-90
2023/02/19 02:25:36;;;;;;;16.50;6.10;;;;;;;13.69;63.19;101729.06;5032227;27;126278;-90
2023/02/19 02:28:23;;;;;;;16.48;6.47;;;;;;;13.66;63.11;101724.75;5026159;27;123887;-88
2023/02/19 02:30:55;;;;;;;16.13;6.40;;;;;;;13.65;63.06;101728.34;5025858;27;108884;-89
2023/02/19 02:33:45;;;;;;;20.48;6.80;;;;;;;13.66;63.06;101734.56;5010502;27;110588;-90
2023/02/19 02:36:17;;;;;;;17.85;6.88;;;;;;;13.65;63.09;101728.34;5023148;27;124151;-87
2023/02/19 02:38:46;;;;;;;21.38;6.95;;;;;;;13.65;63.01;101733.66;5024018;27;123040;-92
2023/02/19 02:41:15;;;;;;;20.27;6.97;;;;;;;13.64;62.89;101726.63;5001862;27;112834;-89
2023/02/19 02:43:42;;;;;;;20.30;6.72;;;;;;;13.66;63.07;101730.09;5005452;27;108328;-89
2023/02/19 02:46:11;;;;;;;16.60;7.00;;;;;;;13.66;62.99;101735.41;5002942;27;123980;-89
2023/02/19 02:48:44;;;;;;;20.60;6.28;;;;;;;13.66;62.86;101740.72;5019116;27;123254;-90
2023/02/19 02:51:29;;;;;;;19.92;6.32;;;;;;;13.66;62.82;101730.09;5024304;27;108572;-88
2023/02/19 02:57:01;;;;;;;21.95;6.78;;;;;;;13.63;62.90;101735.53;5012883;27;123760;-89
2023/02/19 02:59:36;;;;;;;15.18;6.57;;;;;;;13.62;62.65;101747.97;5026149;27;123278;-89
2023/02/19 03:02:10;;;;;;;14.00;6.32;;;;;;;13.60;62.91;101751.66;5014588;27;108537;-90
2023/02/19 03:07:49;;;;;;;21.02;6.28;;;;;;;13.54;62.98;101746.56;5026857;27;123315;-89
2023/02/19 03:10:26;;;;;;;25.00;6.45;;;;;;;13.53;63.03;101752.84;5021684;27;123153;-89
2023/02/19 03:26:04;;;;;;;18.50;5.45;;;;;;;13.39;63.21;101775.59;4979296;28;97192;-68
2023/02/19 03:31:37;;;;;;;20.50;5.40;;;;;;;13.35;63.34;101768.63;4951739;28;123293;-71
2023/02/19 03:34:16;;;;;;;15.25;4.88;;;;;;;13.34;63.16;101772.25;4949329;28;125238;-71
2023/02/19 03:36:52;;;;;;;16.77;4.25;;;;;;;13.33;63.28;101770.50;4935451;28;108055;-70
2023/02/19 03:39:21;;;;;;;17.55;4.70;;;;;;;13.32;63.30;101774.09;4941122;28;108227;-71
2023/02/19 03:41:57;;;;;;;18.27;4.47;;;;;;;13.32;63.32;101776.78;4956414;28;124758;-71
2023/02/19 03:44:42;;;;;;;19.05;4.68;;;;;;;13.31;63.21;101783.00;4934075;28;123043;-71
2023/02/19 03:47:25;;;;;;;15.18;4.45;;;;;;;13.31;63.34;101782.16;4955013;28;107583;-70
2023/02/19 03:50:08;;;;;;;15.27;3.92;;;;;;;13.30;63.35;101786.59;4941944;28;107873;-70
2023/02/19 03:53:13;;;;;;;12.20;4.05;;;;;;;13.29;63.17;101789.28;4953830;28;123654;-70
2023/02/19 03:56:24;;;;;;;15.57;3.83;;;;;;;13.27;63.19;101797.34;4952150;28;123076;-70
2023/02/19 03:58:58;;;;;;;18.27;4.20;;;;;;;13.26;63.22;101795.63;4912953;28;108417;-70
2023/02/19 04:01:28;;;;;;;10.43;3.90;;;;;;;13.26;63.33;101795.63;4955665;28;109070;-70
2023/02/19 04:04:21;;;;;;;13.13;4.22;;;;;;;13.26;63.28;101800.94;4955191;28;124866;-70
2023/02/19 04:06:54;;;;;;;15.98;4.07;;;;;;;13.28;63.22;101814.16;4936149;28;123465;-70
2023/02/19 04:09:26;;;;;;;13.18;3.90;;;;;;;13.28;63.19;101809.72;4938026;28;109877;-70
2023/02/19 04:12:01;;;;;;;16.23;4.45;;;;;;;13.30;63.05;101813.22;4938346;28;112902;-71
2023/02/19 04:14:48;;;;;;;15.30;4.22;;;;;;;13.30;63.24;101817.63;4944879;28;123609;-71
2023/02/19 04:17:31;;;;;;;13.43;3.75;;;;;;;13.30;63.03;101821.19;4957865;28;124405;-70
2023/02/19 04:20:00;;;;;;;14.43;3.72;;;;;;;13.30;63.11;101829.19;4958030;28;109377;-70
2023/02/19 04:22:28;;;;;;;18.92;4.47;;;;;;;13.30;63.04;101831.84;4938923;28;108249;-70
2023/02/19 04:24:55;;;;;;;13.23;4.13;;;;;;;13.32;63.14;101840.63;4950258;28;124297;-70
2023/02/19 04:27:23;;;;;;;11.07;3.88;;;;;;;13.31;63.14;101836.22;4951251;28;124206;-71
2023/02/19 04:29:50;;;;;;;18.40;4.65;;;;;;;13.29;63.07;101835.38;4953596;28;109563;-71
2023/02/19 04:32:17;;;;;;;16.38;4.30;;;;;;;13.29;63.16;101838.03;4940507;28;108830;-71
2023/02/19 04:34:44;;;;;;;11.57;3.75;;;;;;;13.27;63.09;101839.91;4952875;28;124538;-71
2023/02/19 04:37:12;;;;;;;14.68;3.70;;;;;;;13.26;63.19;101832.88;4953437;28;123870;-70
2023/02/19 04:39:39;;;;;;;17.55;3.95;;;;;;;13.27;63.14;101855.88;4960516;28;109104;-71
2023/02/19 04:42:06;;;;;;;18.85;3.95;;;;;;;13.26;63.35;101848.81;4957774;28;108687;-71
2023/02/19 04:44:35;;;;;;;16.67;4.10;;;;;;;13.27;63.23;101849.69;4956166;28;123567;-72
2023/02/19 04:47:02;;;;;;;19.38;4.05;;;;;;;13.25;63.23;101857.72;4955242;28;124389;-72
2023/02/19 04:49:29;;;;;;;18.20;4.03;;;;;;;13.25;63.28;101863.03;4957502;28;109545;-72
2023/02/19 04:51:56;;;;;;;15.68;4.07;;;;;;;13.23;63.31;101870.22;4959125;28;109591;-71
2023/02/19 04:54:24;;;;;;;23.58;4.07;;;;;;;13.23;63.29;101872.88;4957518;28;124056;-71
2023/02/19 04:56:51;;;;;;;17.15;4.10;;;;;;;13.21;63.33;101882.72;4958646;28;124838;-71
2023/02/19 04:59:18;;;;;;;11.35;3.53;;;;;;;13.20;63.46;101886.28;4960501;28;109911;-71
2023/02/19 05:01:46;;;;;;;14.60;3.83;;;;;;;13.17;63.35;101886.44;4956149;28;110227;-71
2023/02/19 05:04:13;;;;;;;11.73;3.60;;;;;;;13.17;63.45;101897.06;4938212;28;123350;-71
2023/02/19 05:06:41;;;;;;;17.92;3.65;;;;;;;13.14;63.55;101897.19;4952414;28;124193;-72
2023/02/19 05:09:08;;;;;;;15.35;3.30;;;;;;;13.14;63.39;101899.84;4961541;28;109488;-72
2023/02/19 05:11:36;;;;;;;17.05;4.20;;;;;;;13.13;63.54;101900.75;4940761;28;108314;-72
2023/02/19 05:14:03;;;;;;;16.13;3.90;;;;;;;13.12;63.47;101909.69;4958485;28;124104;-71
2023/02/19 05:16:32;;;;;;;11.70;3.38;;;;;;;13.12;63.51;101909.69;4958843;28;124506;-71
2023/02/19 05:18:59;;;;;;;14.35;3.03;;;;;;;13.10;63.68;101912.38;4954375;28;110423;-71
2023/02/19 05:21:26;;;;;;;13.55;3.25;;;;;;;13.11;63.58;101913.25;4958822;28;110523;-71
2023/02/19 05:23:53;;;;;;;14.88;3.50;;;;;;;13.09;63.65;101910.66;4955746;28;123889;-72
2023/02/19 05:26:22;;;;;;;13.15;3.20;;;;;;;13.08;63.58;101914.25;4952052;28;124136;-71
2023/02/19 05:28:51;;;;;;;16.85;3.90;;;;;;;13.07;63.65;101916.97;4962239;28;109332;-71
2023/02/19 05:31:19;;;;;;;14.73;3.72;;;;;;;13.05;63.69;101911.69;4944332;28;109342;-71
2023/02/19 05:33:49;;;;;;;14.57;3.97;;;;;;;13.05;63.56;101909.91;4955768;28;123779;-71
2023/02/19 05:36:19;;;;;;;15.05;4.03;;;;;;;13.02;63.70;101910.03;4954273;28;123935;-72
2023/02/19 05:38:52;;;;;;;15.15;3.90;;;;;;;13.00;63.87;101917.19;4960246;28;109478;-72
2023/02/19 05:41:23;;;;;;;16.27;4.22;;;;;;;12.99;63.85;101926.09;4958877;28;109633;-71
2023/02/19 05:43:52;;;;;;;13.43;4.13;;;;;;;12.98;63.67;101912.88;4958925;28;124339;-72
2023/02/19 05:46:21;;;;;;;16.55;4.78;;;;;;;12.97;63.84;101919.97;4953413;28;125092;-71
2023/02/19 05:48:50;;;;;;;16.58;4.07;;;;;;;12.95;63.85;101924.47;4960586;28;108936;-71
2023/02/19 05:51:20;;;;;;;15.60;4.45;;;;;;;12.96;63.81;101925.34;4938431;28;110114;-71
2023/02/19 05:53:48;;;;;;;15.45;4.10;;;;;;;12.96;63.95;101930.66;4941517;28;124048;-71
2023/02/19 05:56:24;;;;;;;14.48;4.50;;;;;;;12.95;63.84;101924.47;4953592;28;124265;-71
2023/02/19 05:58:53;;;;;;;14.43;4.00;;;;;;;12.94;63.95;101928.06;4953912;28;108772;-71
2023/02/19 06:01:23;;;;;;;19.48;3.85;;;;;;;12.95;63.88;101929.78;4942858;28;107771;-71
2023/02/19 06:03:50;;;;;;;15.32;4.07;;;;;;;12.95;64.07;101929.78;4960125;28;125143;-71
2023/02/19 06:06:18;;;;;;;19.95;4.00;;;;;;;12.94;63.89;101928.06;4954151;28;123894;-71
2023/02/19 06:08:49;;;;;;;13.40;3.67;;;;;;;12.95;63.96;101932.44;4939436;28;108407;-71
2023/02/19 06:11:17;;;;;;;12.77;3.53;;;;;;;12.94;64.02;101941.38;4962678;28;108792;-71
2023/02/19 06:13:45;;;;;;;14.68;3.65;;;;;;;12.94;63.96;101944.03;4957186;28;124869;-71
2023/02/19 06:16:12;;;;;;;12.55;4.15;;;;;;;12.92;64.12;101956.50;4960933;28;124024;-72
2023/02/19 06:18:40;;;;;;;17.63;3.80;;;;;;;12.91;64.10;101949.44;4960578;28;109117;-72
2023/02/19 06:21:09;;;;;;;14.23;4.18;;;;;;;12.90;63.96;101947.69;4941311;28;108303;-72
2023/02/19 06:23:38;;;;;;;16.83;4.15;;;;;;;12.89;64.16;101953.97;4952793;28;123809;-72
2023/02/19 06:26:11;;;;;;;11.15;4.22;;;;;;;12.88;64.29;101954.00;4960081;28;124312;-71
2023/02/19 06:28:40;;;;;;;18.50;4.00;;;;;;;12.87;64.21;101958.47;4936931;28;108458;-72
2023/02/19 06:31:08;;;;;;;13.48;4.30;;;;;;;12.87;64.02;101958.47;4937780;28;108228;-71
2023/02/19 06:33:40;;;;;;;16.25;4.43;;;;;;;12.88;64.07;101962.84;4951512;28;124354;-71
2023/02/19 06:36:14;;;;;;;19.08;4.20;;;;;;;12.86;64.23;101967.34;4951318;28;123839;-71
2023/02/19 06:38:42;;;;;;;14.32;4.38;;;;;;;12.86;64.15;101978.00;4939728;28;111026;-72
2023/02/19 06:41:12;;;;;;;15.93;4.70;;;;;;;12.85;64.16;101986.91;4958959;28;108947;-71
2023/02/19 06:43:40;;;;;;;15.45;4.53;;;;;;;12.86;64.10;101993.94;4956653;28;126931;-72
2023/02/19 06:46:09;;;;;;;20.27;5.25;;;;;;;12.86;64.09;101996.59;4960447;28;124413;-71
2023/02/19 06:48:37;;;;;;;16.45;4.82;;;;;;;12.86;64.12;101999.25;4952909;28;109307;-71
2023/02/19 06:51:05;;;;;;;13.43;4.85;;;;;;;12.86;64.12;101999.25;4955843;28;109060;-72
2023/02/19 06:53:32;;;;;;;19.42;5.05;;;;;;;12.85;64.18;102000.19;4946777;28;123550;-72
2023/02/19 06:56:03;;;;;;;16.77;5.68;;;;;;;12.84;64.13;102001.09;4940285;28;122815;-72
2023/02/19 06:58:31;;;;;;;14.80;4.55;;;;;;;12.85;64.12;102003.72;4958751;28;108972;-71
2023/02/19 07:00:59;;;;;;;13.70;5.05;;;;;;;12.86;64.18;102004.56;4963944;28;108626;-72
2023/02/19 07:03:26;;;;;;;17.58;5.30;;;;;;;12.85;64.09;101997.53;4953401;28;124780;-72
2023/02/19 07:05:58;;;;;;;17.70;5.05;;;;;;;12.85;64.16;102003.72;4936164;28;122796;-73
2023/02/19 07:08:25;;;;;;;13.35;5.50;;;;;;;12.85;64.18;102010.84;4954490;28;109994;-73
2023/02/19 07:10:57;;;;;;;11.82;4.95;;;;;;;12.87;64.21;102022.28;4935095;28;107991;-72
2023/02/19 07:13:26;;;;;;;20.00;5.03;;;;;;;12.87;64.18;102022.28;4937127;28;124239;-72
2023/02/19 07:16:02;;;;;;;13.35;4.97;;;;;;;12.87;64.19;102016.09;4950560;28;124314;-72
2023/02/19 07:18:30;;;;;;;18.73;5.22;;;;;;;12.87;64.15;102032.91;4952391;28;109734;-73
2023/02/19 07:21:09;;;;;;;14.70;4.75;;;;;;;12.88;64.22;102029.31;4950836;28;109266;-71
2023/02/19 07:23:38;;;;;;;16.80;5.15;;;;;;;12.88;64.10;102033.78;4949550;28;124498;-72
2023/02/19 07:26:13;;;;;;;13.55;4.57;;;;;;;12.88;64.23;102039.94;4952042;28;124376;-72
2023/02/19 07:28:41;;;;;;;;;;;;;;;12.89;63.98;102047.03;4951405;28;109595;-72
2023/02/19 07:31:08;;;;;;;14.88;4.93;;;;;;;12.91;64.05;102050.50;4971998;28;109768;-72
2023/02/19 07:33:37;;;;;;;19.20;5.18;;;;;;;12.91;64.21;102055.81;4968768;28;124174;-72
2023/02/19 07:36:06;;;;;;;15.07;5.28;;;;;;;12.92;64.09;102057.56;4956467;28;124319;-72
2023/02/19 07:38:33;;;;;;;14.55;5.18;;;;;;;12.93;64.23;102069.91;4951507;28;109818;-73
2023/02/19 07:41:03;;;;;;;14.25;4.95;;;;;;;12.94;64.16;102071.66;4950906;28;108731;-72
2023/02/19 07:43:32;;;;;;;15.60;5.00;;;;;;;12.95;64.07;102072.53;4957179;28;124089;-72
2023/02/19 07:46:05;;;;;;;14.50;4.95;;;;;;;12.95;64.10;102078.72;4958498;28;123938;-72
2023/02/19 07:48:34;;;;;;;17.38;4.82;;;;;;;12.94;63.93;102082.31;4920153;28;108278;-72
2023/02/19 07:51:05;;;;;;;16.05;5.10;;;;;;;12.95;64.06;102084.03;4958854;28;109061;-72
2023/02/19 07:53:34;;;;;;;13.48;5.15;;;;;;;12.96;64.08;102096.41;4951828;28;123238;-72
2023/02/19 07:56:03;;;;;;;10.40;5.05;;;;;;;12.97;64.02;102103.44;4951631;28;125095;-73
2023/02/19 07:58:31;;;;;;;12.88;5.18;;;;;;;12.99;64.15;102101.59;4951758;28;109350;-72
2023/02/19 08:01:12;;;;;;;12.07;4.75;;;;;;;12.99;63.98;102106.06;4952192;28;109084;-72
2023/02/19 08:03:40;;;;;;;16.60;5.32;;;;;;;12.98;64.14;102110.53;4964656;28;124379;-72
2023/02/19 08:06:09;;;;;;;14.52;5.00;;;;;;;12.99;64.03;102117.56;4952332;28;124287;-72
2023/02/19 08:08:38;;;;;;;14.75;4.80;;;;;;;12.97;64.12;102123.88;4954188;28;109234;-72
2023/02/19 08:13:52;;;;;;;12.05;4.30;;;;;;;12.94;64.33;102130.16;4944023;28;124612;-72
2023/02/19 08:16:20;;;;;;;11.98;4.80;;;;;;;12.91;64.19;102135.59;4919541;28;122725;-72
2023/02/19 08:19:03;;;;;;;14.60;5.18;;;;;;;12.91;64.22;102135.59;4945853;28;110306;-72
2023/02/19 08:21:30;;;;;;;10.70;5.20;;;;;;;12.90;64.28;102141.81;4937915;28;110072;-72
2023/02/19 08:24:00;;;;;;;12.63;4.97;;;;;;;12.90;64.54;102139.16;4955503;28;124253;-72
2023/02/19 08:26:27;;;;;;;13.55;5.00;;;;;;;12.89;64.50;102137.44;4954911;28;123466;-72
2023/02/19 08:28:54;;;;;;;12.25;5.15;;;;;;;12.91;64.47;102140.91;4954324;28;109490;-72
2023/02/19 08:31:22;;;;;;;11.95;5.03;;;;;;;12.91;64.29;102146.22;4957129;28;108833;-72
2023/02/19 08:33:49;;;;;;;9.55;4.53;;;;;;;12.91;64.27;102146.22;4954074;28;123982;-72
2023/02/19 08:36:16;;;;;;;8.95;4.57;;;;;;;12.92;64.36;102137.34;4954667;28;124189;-71
2023/02/19 08:38:45;;;;;;;9.45;4.72;;;;;;;12.94;64.54;102140.81;4954312;28;109309;-71
2023/02/19 08:41:12;;;;;;;11.32;5.20;;;;;;;12.95;64.58;102147.84;4955929;28;108607;-72
2023/02/19 08:43:41;;;;;;;11.70;5.30;;;;;;;12.98;64.63;102136.25;4955390;28;123022;-72
2023/02/19 08:46:10;;;;;;;13.95;5.90;;;;;;;13.00;64.57;102145.91;4954175;28;123004;-73
2023/02/19 08:48:38;;;;;;;13.07;5.90;;;;;;;13.00;64.48;102151.22;4954964;28;109355;-72
2023/02/19 08:51:09;;;;;;;14.70;6.20;;;;;;;13.02;64.75;102165.34;4941683;28;109039;-72
2023/02/19 08:53:39;;;;;;;13.52;5.65;;;;;;;13.04;64.67;102163.50;4936341;28;124430;-72
2023/02/19 08:56:09;;;;;;;10.30;5.72;;;;;;;13.08;64.69;102171.38;4952877;28;123952;-73
2023/02/19 08:58:36;;;;;;;15.90;5.88;;;;;;;13.12;64.62;102173.00;4971435;28;109917;-72
2023/02/19 09:01:09;;;;;;;12.15;5.30;;;;;;;13.12;64.50;102176.53;4967704;28;109252;-72
2023/02/19 09:03:37;;;;;;;12.02;4.88;;;;;;;13.13;64.51;102182.72;4954634;28;124217;-73
2023/02/19 09:06:05;;;;;;;10.35;4.75;;;;;;;13.13;64.38;102175.63;4954626;28;124022;-72
2023/02/19 09:08:32;;;;;;;9.25;4.85;;;;;;;13.14;64.42;102184.47;4968285;28;110543;-72
2023/02/19 09:11:05;;;;;;;12.10;5.65;;;;;;;13.13;64.38;102182.72;4955454;28;109146;-72
2023/02/19 09:13:33;;;;;;;17.38;5.47;;;;;;;13.12;64.43;102191.63;4953576;28;124078;-72
2023/02/19 09:16:03;;;;;;;9.88;5.53;;;;;;;13.11;64.34;102189.88;4952699;28;124020;-72
2023/02/19 09:18:30;;;;;;;9.13;4.38;;;;;;;13.11;64.45;102184.56;4938430;28;108549;-72
2023/02/19 09:21:03;;;;;;;8.90;4.20;;;;;;;13.11;64.53;102189.88;4955870;28;108755;-72
2023/02/19 09:23:35;;;;;;;6.68;3.50;;;;;;;13.13;64.59;102188.03;4937246;28;123100;-72
2023/02/19 09:26:05;;;;;;;7.45;3.78;;;;;;;13.17;64.65;102189.69;4952737;28;123848;-72
2023/02/19 09:28:33;;;;;;;9.95;3.80;;;;;;;13.20;64.66;102178.91;4938978;28;107352;-71
2023/02/19 09:31:12;;;;;;;6.32;3.50;;;;;;;13.20;64.73;102178.91;4955015;28;109250;-72
2023/02/19 09:33:44;;;;;;;10.40;3.97;;;;;;;13.23;64.62;102184.16;4952529;28;124637;-72
2023/02/19 09:36:13;;;;;;;6.68;3.47;;;;;;;13.26;64.75;102197.34;4937279;28;122715;-72
2023/02/19 09:38:41;;;;;;;5.63;3.58;;;;;;;13.30;64.65;102190.09;4938306;28;108336;-72
2023/02/19 09:41:17;;;;;;;6.88;3.70;;;;;;;13.32;64.83;102197.16;4946407;28;109342;-72
2023/02/19 09:43:44;;;;;;;6.82;3.70;;;;;;;13.40;64.86;102200.41;4948366;28;124422;-72
2023/02/19 09:46:26;;;;;;;5.30;2.83;;;;;;;13.43;64.83;102208.31;4936864;28;122811;-72
2023/02/19 09:49:17;;;;;;;6.93;3.00;;;;;;;13.45;64.43;102205.59;4921430;28;113279;-72
2023/02/19 09:51:49;;;;;;;3.50;2.50;;;;;;;13.43;64.47;102218.94;4954439;28;114027;-73
2023/02/19 09:54:23;;;;;;;7.38;2.92;;;;;;;13.44;64.50;102230.47;4952261;28;124195;-72
2023/02/19 09:56:53;;;;;;;4.20;2.53;;;;;;;13.45;64.37;102248.19;4934148;28;122918;-72
2023/02/19 09:59:27;;;;;;;5.47;2.47;;;;;;;13.44;64.53;102252.59;4932658;28;115974;-72
2023/02/19 10:02:04;;;;;;;4.78;2.58;;;;;;;13.40;64.40;102256.31;4951732;28;114965;-73
2023/02/19 10:04:31;;;;;;;3.42;2.22;;;;;;;13.38;64.41;102258.16;4922988;28;123638;-76
2023/02/19 10:07:02;;;;;;;4.63;2.17;;;;;;;13.34;64.33;102256.53;4951758;28;123839;-75
2023/02/19 10:09:30;;;;;;;4.90;2.53;;;;;;;13.32;64.33;102271.69;4934978;28;113061;-74
2023/02/19 10:11:58;;;;;;;5.43;2.80;;;;;;;13.30;64.45;102276.19;4919328;28;112913;-75
2023/02/19 10:14:48;;;;;;;5.25;3.00;;;;;;;13.26;64.45;102279.84;4951198;28;124055;-75
2023/02/19 10:17:22;;;;;;;6.22;3.22;;;;;;;13.25;64.48;102288.72;4945367;28;123918;-73
2023/02/19 10:19:51;;;;;;;4.22;3.30;;;;;;;13.23;64.50;102285.25;4954244;28;114247;-74
2023/02/19 10:22:19;;;;;;;8.48;3.65;;;;;;;13.23;64.37;102285.25;4963585;28;113810;-74
2023/02/19 10:24:51;;;;;;;6.68;3.58;;;;;;;13.23;64.55;102301.22;4951675;28;123955;-74
2023/02/19 10:27:19;;;;;;;10.45;4.22;;;;;;;13.22;64.49;102297.69;4938269;28;125584;-75
2023/02/19 10:29:53;;;;;;;7.90;4.10;;;;;;;13.25;64.58;102315.34;4952288;28;114778;-74
2023/02/19 10:32:23;;;;;;;7.63;3.88;;;;;;;13.27;64.63;102324.13;4951191;28;114713;-73
2023/02/19 10:35:17;;;;;;;8.65;3.90;;;;;;;13.29;64.63;102322.28;4949362;28;124681;-73
2023/02/19 10:37:49;;;;;;;7.60;3.75;;;;;;;13.33;64.69;102318.63;4939138;28;124541;-73
2023/02/19 10:40:23;;;;;;;7.60;4.20;;;;;;;13.36;64.75;102313.22;4921908;28;115009;-73
2023/02/19 10:42:56;;;;;;;5.75;3.30;;;;;;;13.40;64.70;102319.31;4962716;28;113927;-73
2023/02/19 10:45:28;;;;;;;5.57;3.05;;;;;;;13.43;64.63;102313.91;4949614;28;123076;-73
2023/02/19 10:47:56;;;;;;;8.32;3.72;;;;;;;13.51;64.70;102329.63;4939172;28;123978;-73
2023/02/19 10:50:30;;;;;;;5.43;2.80;;;;;;;13.55;64.70;102329.44;4939951;28;114015;-73
2023/02/19 10:53:00;;;;;;;6.93;3.08;;;;;;;13.61;64.63;102333.69;4959881;28;114929;-73
2023/02/19 10:55:33;;;;;;;5.57;3.20;;;;;;;13.66;64.76;102337.06;4948556;28;124059;-72
2023/02/19 10:58:24;;;;;;;4.63;2.47;;;;;;;13.76;64.68;102343.81;4948643;28;123926;-72
2023/02/19 11:01:22;;;;;;;5.45;3.15;;;;;;;13.80;64.71;102345.44;4945029;28;114970;-72
2023/02/19 11:03:51;;;;;;;4.05;2.45;;;;;;;13.88;64.62;102337.22;4950888;28;114425;-74
2023/02/19 11:06:25;;;;;;;5.32;2.75;;;;;;;13.95;64.71;102332.53;4967363;28;124085;-72
2023/02/19 11:08:59;;;;;;;6.70;3.10;;;;;;;14.02;64.57;102339.38;4968471;28;124269;-72
2023/02/19 11:11:35;;;;;;;7.40;3.13;;;;;;;14.07;64.57;102342.75;4969076;28;113681;-72
2023/02/19 11:14:13;;;;;;;7.43;3.00;;;;;;;14.12;64.39;102335.44;4925176;28;112794;-72
2023/02/19 11:16:45;;;;;;;5.70;2.85;;;;;;;14.16;63.98;102326.41;4947342;28;124336;-72
2023/02/19 11:19:37;;;;;;;4.63;2.80;;;;;;;14.12;63.61;102327.47;4932686;28;124292;-72
2023/02/19 11:22:27;;;;;;;4.88;2.50;;;;;;;14.09;63.22;102319.59;4956190;28;114297;-72
2023/02/19 11:25:13;;;;;;;4.72;3.08;;;;;;;14.05;63.37;102317.94;4957156;28;112918;-72
2023/02/19 11:28:16;;;;;;;5.22;3.03;;;;;;;14.00;63.32;102319.91;4954967;28;124623;-72
2023/02/19 11:30:47;;;;;;;5.72;3.10;;;;;;;13.95;63.04;102306.75;4933434;28;123752;-72
2023/02/19 11:33:23;;;;;;;6.30;3.13;;;;;;;13.92;63.02;102316.63;4939104;28;114113;-72
2023/02/19 11:35:56;;;;;;;5.63;3.53;;;;;;;13.90;63.02;102313.16;4935926;28;114280;-72
2023/02/19 11:38:25;;;;;;;8.23;3.00;;;;;;;13.90;63.14;102310.50;4961896;28;124368;-72
2023/02/19 11:41:15;;;;;;;7.93;2.83;;;;;;;13.91;63.02;102315.78;4953071;28;124339;-73
2023/02/19 11:43:55;;;;;;;7.55;2.83;;;;;;;13.94;63.00;102320.16;4946615;28;115372;-72
2023/02/19 11:46:36;;;;;;;5.95;2.90;;;;;;;13.97;63.00;102320.03;4959153;28;114998;-71
2023/02/19 11:49:34;;;;;;;11.18;3.38;;;;;;;13.98;62.81;102321.78;4951767;28;124490;-72
2023/02/19 11:52:20;;;;;;;6.45;3.40;;;;;;;13.98;62.77;102329.75;4945575;28;123806;-72
2023/02/19 11:54:51;;;;;;;;;;;;;;;13.94;62.90;102325.47;4947880;28;114684;-71
2023/02/19 11:57:21;;;;;;;7.75;3.00;;;;;;;13.92;62.72;102338.84;4955717;28;114327;-72
2023/02/19 12:00:02;;;;;;;8.93;2.97;;;;;;;13.89;62.56;102338.06;4931046;28;124340;-72
2023/02/19 12:03:15;;;;;;;7.22;3.00;;;;;;;13.85;62.62;102336.44;4962135;28;124881;-71